createdAt,value
2022-07-30T00:00:28.470Z,19.00
2022-07-30T00:02:56.673Z,18.90
2022-07-30T00:05:26.460Z,18.80
2022-07-30T00:07:54.669Z,18.90
2022-07-30T00:10:24.070Z,18.80
2022-07-30T00:12:52.932Z,18.90
2022-07-30T00:15:21.321Z,18.80
2022-07-30T00:17:49.608Z,18.80
2022-07-30T00:20:18.582Z,18.80
2022-07-30T00:22:48.485Z,18.80
2022-07-30T00:25:18.805Z,18.70
2022-07-30T00:27:47.430Z,18.60
2022-07-30T00:30:16.088Z,18.60
2022-07-30T00:32:44.349Z,18.50
2022-07-30T00:35:13.137Z,18.50
2022-07-30T00:37:41.584Z,18.40
2022-07-30T00:40:12.249Z,18.40
2022-07-30T00:42:42.166Z,18.30
2022-07-30T00:45:11.699Z,18.30
2022-07-30T00:47:40.494Z,18.30
2022-07-30T00:50:11.246Z,18.30
2022-07-30T00:52:40.006Z,18.30
2022-07-30T00:55:13.423Z,18.30
2022-07-30T00:57:42.557Z,18.30
2022-07-30T01:00:14.326Z,18.20
2022-07-30T01:02:42.527Z,18.20
2022-07-30T01:05:11.560Z,18.20
2022-07-30T01:07:39.849Z,18.30
2022-07-30T01:10:12.406Z,18.30
2022-07-30T01:12:45.905Z,18.30
2022-07-30T01:15:17.313Z,18.30
2022-07-30T01:17:52.760Z,18.30
2022-07-30T01:20:30.276Z,18.20
2022-07-30T01:23:13.203Z,18.20
2022-07-30T01:26:10.175Z,18.10
2022-07-30T01:28:44.907Z,18.10
2022-07-30T01:31:17.274Z,18.10
2022-07-30T01:33:48.645Z,18.10
2022-07-30T01:36:22.727Z,18.10
2022-07-30T01:38:59.792Z,18.10
2022-07-30T01:41:36.145Z,18.20
2022-07-30T01:44:09.054Z,18.10
2022-07-30T01:46:40.903Z,18.10
2022-07-30T01:49:11.372Z,18.10
2022-07-30T01:51:41.024Z,18.10
2022-07-30T01:54:10.964Z,17.90
2022-07-30T01:57:02.490Z,17.90
2022-07-30T01:59:33.547Z,17.90
2022-07-30T02:02:07.018Z,17.80
2022-07-30T02:04:38.307Z,17.80
2022-07-30T02:07:14.548Z,17.80
2022-07-30T02:09:55.530Z,17.60
2022-07-30T02:12:35.518Z,17.50
2022-07-30T02:15:16.893Z,17.50
2022-07-30T02:17:54.238Z,17.30
2022-07-30T02:20:40.028Z,17.30
2022-07-30T02:23:16.509Z,17.20
2022-07-30T02:25:53.713Z,17.10
2022-07-30T02:28:42.888Z,17.00
2022-07-30T02:31:19.829Z,16.90
2022-07-30T02:33:51.644Z,16.80
2022-07-30T02:36:32.241Z,16.80
2022-07-30T02:39:03.963Z,16.80
2022-07-30T02:41:38.446Z,16.80
2022-07-30T02:44:22.958Z,16.80
2022-07-30T02:46:54.837Z,16.70
2022-07-30T02:49:32.851Z,16.70
2022-07-30T02:52:11.394Z,16.70
2022-07-30T02:54:43.722Z,16.70
2022-07-30T02:57:17.272Z,16.60
2022-07-30T02:59:54.609Z,16.70
2022-07-30T03:02:29.407Z,16.60
2022-07-30T03:05:03.429Z,16.60
2022-07-30T03:07:39.410Z,16.70
2022-07-30T03:10:10.262Z,16.70
2022-07-30T03:12:40.916Z,16.70
2022-07-30T03:15:19.395Z,16.70
2022-07-30T03:17:57.671Z,16.70
2022-07-30T03:20:32.077Z,16.60
2022-07-30T03:23:03.087Z,16.60
2022-07-30T03:25:35.168Z,16.60
2022-07-30T03:30:56.606Z,16.40
2022-07-30T03:33:38.316Z,16.40
2022-07-30T03:36:28.501Z,16.30
2022-07-30T03:38:57.909Z,16.30
2022-07-30T03:41:26.594Z,16.30
2022-07-30T03:43:57.449Z,16.30
2022-07-30T03:46:33.707Z,16.20
2022-07-30T03:49:02.298Z,16.30
2022-07-30T03:51:32.853Z,16.10
2022-07-30T03:54:13.269Z,16.10
2022-07-30T03:56:42.471Z,16.00
2022-07-30T03:59:11.155Z,15.90
2022-07-30T04:01:40.900Z,15.90
2022-07-30T04:04:19.054Z,15.90
2022-07-30T04:06:48.633Z,15.90
2022-07-30T04:09:19.621Z,15.90
2022-07-30T04:11:49.133Z,15.80
2022-07-30T04:14:18.825Z,15.80
2022-07-30T04:16:53.389Z,15.70
2022-07-30T04:19:24.646Z,15.70
2022-07-30T04:21:55.343Z,15.70
2022-07-30T04:24:28.672Z,15.80
2022-07-30T04:26:58.409Z,15.80
2022-07-30T04:29:28.668Z,15.70
2022-07-30T04:31:58.365Z,15.70
2022-07-30T04:34:27.073Z,15.70
2022-07-30T04:36:55.280Z,15.80
2022-07-30T04:39:23.506Z,15.80
2022-07-30T04:41:55.609Z,16.00
2022-07-30T04:44:25.580Z,16.10
2022-07-30T04:46:54.313Z,16.20
2022-07-30T04:49:26.475Z,16.30
2022-07-30T04:51:55.667Z,16.40
2022-07-30T04:54:29.257Z,16.50
2022-07-30T04:57:01.262Z,16.60
2022-07-30T04:59:29.769Z,16.60
2022-07-30T05:02:00.034Z,16.70
2022-07-30T05:04:35.585Z,16.80
2022-07-30T05:07:08.525Z,16.80
2022-07-30T05:09:38.385Z,16.80
2022-07-30T05:12:14.770Z,16.90
2022-07-30T05:14:47.923Z,17.00
2022-07-30T05:17:18.202Z,17.10
2022-07-30T05:19:48.953Z,17.20
2022-07-30T05:22:18.561Z,17.30
2022-07-30T05:24:46.758Z,17.30
2022-07-30T05:27:16.347Z,17.40
2022-07-30T05:29:45.487Z,17.50
2022-07-30T05:32:16.580Z,17.60
2022-07-30T05:34:55.115Z,17.80
2022-07-30T05:37:24.445Z,17.90
2022-07-30T05:40:02.477Z,18.00
2022-07-30T05:42:33.466Z,18.20
2022-07-30T05:45:04.078Z,18.30
2022-07-30T05:47:33.685Z,18.30
2022-07-30T05:50:05.510Z,18.50
2022-07-30T05:52:35.269Z,18.60
2022-07-30T05:55:04.782Z,18.70
2022-07-30T05:57:35.826Z,18.80
2022-07-30T06:00:07.595Z,18.90
2022-07-30T06:02:43.986Z,18.90
2022-07-30T06:05:18.196Z,19.10
2022-07-30T06:07:47.473Z,19.20
2022-07-30T06:10:15.814Z,19.30
2022-07-30T06:12:48.025Z,19.40
2022-07-30T06:15:23.128Z,19.50
2022-07-30T06:18:01.744Z,19.50
2022-07-30T06:20:37.433Z,19.60
2022-07-30T06:23:06.907Z,19.80
2022-07-30T06:25:35.293Z,19.90
2022-07-30T06:28:34.804Z,19.90
2022-07-30T06:30:57.290Z,20.10
2022-07-30T06:33:29.172Z,20.30
2022-07-30T06:35:58.791Z,20.40
2022-07-30T06:38:27.087Z,20.40
2022-07-30T06:40:59.189Z,20.60
2022-07-30T06:43:33.660Z,20.70
2022-07-30T06:46:04.216Z,20.80
2022-07-30T06:48:32.831Z,20.70
2022-07-30T06:51:05.938Z,20.90
2022-07-30T06:53:35.876Z,21.10
2022-07-30T06:56:13.369Z,21.20
2022-07-30T06:58:41.652Z,21.40
2022-07-30T07:01:11.678Z,21.50
2022-07-30T07:03:41.041Z,21.70
2022-07-30T07:06:16.892Z,21.80
2022-07-30T07:08:45.087Z,21.80
2022-07-30T07:11:15.858Z,21.90
2022-07-30T07:13:48.719Z,22.10
2022-07-30T07:16:16.990Z,22.20
2022-07-30T07:18:46.662Z,22.30
2022-07-30T07:21:27.054Z,22.30
2022-07-30T07:23:57.087Z,22.30
2022-07-30T07:26:37.147Z,22.40
2022-07-30T07:29:06.755Z,22.40
2022-07-30T07:32:05.366Z,22.50
2022-07-30T07:34:25.961Z,22.70
2022-07-30T07:36:59.005Z,22.80
2022-07-30T07:39:32.669Z,22.80
2022-07-30T07:42:04.566Z,22.80
2022-07-30T07:44:32.852Z,22.80
2022-07-30T07:47:02.795Z,22.80
2022-07-30T07:49:33.310Z,23.00
2022-07-30T07:52:05.186Z,23.00
2022-07-30T07:54:33.947Z,23.10
2022-07-30T07:57:07.911Z,23.10
2022-07-30T07:59:40.686Z,23.30
2022-07-30T08:02:11.782Z,23.40
2022-07-30T08:04:42.839Z,23.30
2022-07-30T08:07:14.910Z,23.50
2022-07-30T08:09:44.983Z,23.80
2022-07-30T08:12:16.517Z,23.80
2022-07-30T08:14:44.786Z,23.70
2022-07-30T08:17:14.990Z,23.60
2022-07-30T08:19:43.553Z,23.90
2022-07-30T08:22:18.326Z,23.80
2022-07-30T08:24:47.971Z,23.90
2022-07-30T08:27:20.605Z,24.10
2022-07-30T08:29:48.792Z,24.20
2022-07-30T08:32:19.338Z,24.30
2022-07-30T08:34:48.468Z,24.40
2022-07-30T08:37:19.605Z,24.50
2022-07-30T08:39:47.805Z,24.70
2022-07-30T08:42:16.919Z,24.80
2022-07-30T08:44:46.393Z,24.80
2022-07-30T08:47:18.007Z,24.90
2022-07-30T08:49:50.098Z,25.00
2022-07-30T08:52:35.867Z,25.00
2022-07-30T08:55:06.703Z,25.20
2022-07-30T08:57:36.869Z,25.30
2022-07-30T09:00:07.973Z,25.10
2022-07-30T09:02:36.749Z,25.00
2022-07-30T09:05:07.944Z,24.90
2022-07-30T09:07:39.327Z,24.90
2022-07-30T09:10:08.809Z,24.90
2022-07-30T09:12:39.918Z,25.20
2022-07-30T09:15:16.551Z,25.00
2022-07-30T09:17:49.481Z,25.00
2022-07-30T09:20:32.442Z,25.10
2022-07-30T09:23:10.941Z,25.30
2022-07-30T09:25:47.926Z,25.20
2022-07-30T09:28:17.145Z,25.20
2022-07-30T09:30:53.360Z,25.30
2022-07-30T09:33:40.488Z,25.30
2022-07-30T09:36:14.642Z,25.50
2022-07-30T09:38:51.669Z,25.80
2022-07-30T09:41:41.481Z,25.80
2022-07-30T09:44:09.857Z,26.00
2022-07-30T09:46:47.596Z,25.70
2022-07-30T09:49:17.524Z,25.90
2022-07-30T09:51:55.898Z,26.00
2022-07-30T09:57:57.701Z,26.20
2022-07-30T10:00:29.362Z,26.10
2022-07-30T10:02:57.944Z,26.30
2022-07-30T10:05:26.175Z,26.30
2022-07-30T10:07:57.014Z,26.30
2022-07-30T10:10:31.005Z,26.30
2022-07-30T10:13:04.618Z,26.20
2022-07-30T10:15:35.896Z,26.20
2022-07-30T10:18:06.417Z,26.30
2022-07-30T10:20:35.252Z,26.50
2022-07-30T10:23:08.767Z,26.80
2022-07-30T10:25:49.399Z,26.80
2022-07-30T10:28:24.331Z,26.90
2022-07-30T10:30:53.336Z,26.90
2022-07-30T10:33:37.527Z,27.20
2022-07-30T10:36:11.678Z,27.10
2022-07-30T10:38:43.114Z,26.90
2022-07-30T10:41:43.016Z,26.80
2022-07-30T10:44:35.117Z,27.30
2022-07-30T10:47:06.947Z,27.80
2022-07-30T10:49:41.059Z,27.50
2022-07-30T10:52:12.167Z,27.80
2022-07-30T10:54:43.142Z,27.70
2022-07-30T10:57:31.629Z,27.80
2022-07-30T11:00:13.558Z,27.80
2022-07-30T11:03:14.926Z,27.70
2022-07-30T11:05:45.937Z,27.90
2022-07-30T11:08:31.838Z,28.00
2022-07-30T11:11:16.159Z,27.80
2022-07-30T11:13:57.412Z,27.80
2022-07-30T11:16:47.672Z,28.10
2022-07-30T11:19:56.542Z,28.00
2022-07-30T11:22:38.446Z,28.30
2022-07-30T11:25:12.750Z,28.30
2022-07-30T11:27:45.678Z,28.40
2022-07-30T11:30:36.184Z,28.30
2022-07-30T11:33:33.009Z,28.50
2022-07-30T11:36:10.834Z,28.60
2022-07-30T11:39:06.872Z,28.20
2022-07-30T11:41:35.634Z,28.30
2022-07-30T11:44:29.961Z,28.60
2022-07-30T11:47:00.545Z,29.00
2022-07-30T11:49:36.594Z,29.50
2022-07-30T11:52:05.283Z,29.60
2022-07-30T11:54:33.575Z,30.00
2022-07-30T11:57:04.617Z,30.30
2022-07-30T11:59:33.109Z,30.20
2022-07-30T12:02:02.927Z,29.80
2022-07-30T12:04:31.525Z,29.70
2022-07-30T12:07:00.277Z,29.70
2022-07-30T12:09:29.740Z,29.40
2022-07-30T12:11:58.289Z,28.90
2022-07-30T12:14:29.381Z,28.60
2022-07-30T12:17:00.366Z,28.50
2022-07-30T12:19:47.491Z,28.50
2022-07-30T12:22:19.308Z,28.30
2022-07-30T12:24:47.774Z,28.40
2022-07-30T12:27:16.298Z,28.10
2022-07-30T12:29:44.687Z,27.80
2022-07-30T12:32:13.095Z,27.70
2022-07-30T12:34:55.312Z,27.50
2022-07-30T12:37:23.514Z,27.30
2022-07-30T12:40:05.383Z,27.60
2022-07-30T12:42:33.600Z,27.70
2022-07-30T12:45:01.855Z,28.10
2022-07-30T12:47:33.900Z,28.20
2022-07-30T12:50:16.817Z,28.30
2022-07-30T12:52:50.208Z,28.10
2022-07-30T12:55:19.851Z,28.20
2022-07-30T12:57:56.329Z,28.30
2022-07-30T13:00:25.590Z,28.30
2022-07-30T13:02:54.101Z,28.70
2022-07-30T13:05:44.353Z,28.80
2022-07-30T13:08:12.568Z,28.70
2022-07-30T13:10:54.736Z,28.30
2022-07-30T13:13:23.034Z,28.10
2022-07-30T13:16:01.797Z,28.30
2022-07-30T13:18:30.880Z,28.00
2022-07-30T13:21:00.949Z,27.80
2022-07-30T13:23:29.924Z,27.80
2022-07-30T13:25:58.742Z,27.90
2022-07-30T13:28:28.025Z,28.30
2022-07-30T13:30:58.027Z,28.90
2022-07-30T13:33:26.506Z,30.00
2022-07-30T13:35:54.887Z,30.60
2022-07-30T13:38:24.670Z,31.10
2022-07-30T13:40:53.036Z,30.80
2022-07-30T13:43:21.316Z,31.00
2022-07-30T13:45:50.286Z,31.00
2022-07-30T13:48:18.888Z,31.10
2022-07-30T13:50:47.282Z,30.80
2022-07-30T13:53:15.555Z,30.60
2022-07-30T13:55:46.646Z,30.70
2022-07-30T13:58:15.231Z,31.40
2022-07-30T14:00:45.224Z,31.60
2022-07-30T14:03:13.776Z,31.70
2022-07-30T14:05:42.665Z,32.00
2022-07-30T14:08:11.990Z,32.00
2022-07-30T14:10:40.921Z,32.20
2022-07-30T14:13:19.423Z,32.00
2022-07-30T14:15:49.933Z,32.40
2022-07-30T14:18:18.396Z,32.50
2022-07-30T14:20:48.885Z,32.10
2022-07-30T14:23:17.530Z,31.60
2022-07-30T14:25:45.787Z,31.40
2022-07-30T14:28:16.480Z,31.80
2022-07-30T14:30:44.801Z,32.40
2022-07-30T14:33:13.124Z,32.00
2022-07-30T14:35:41.363Z,31.80
2022-07-30T14:38:09.558Z,31.50
2022-07-30T14:40:37.841Z,30.60
2022-07-30T14:43:06.080Z,30.20
2022-07-30T14:45:36.601Z,29.80
2022-07-30T14:48:07.343Z,30.00
2022-07-30T14:50:46.722Z,29.80
2022-07-30T14:53:24.600Z,29.80
2022-07-30T14:55:53.831Z,29.70
2022-07-30T14:58:28.526Z,29.40
2022-07-30T15:01:15.623Z,29.40
2022-07-30T15:03:49.620Z,29.30
2022-07-30T15:06:21.711Z,29.30
2022-07-30T15:08:53.311Z,29.10
2022-07-30T15:11:28.308Z,29.30
2022-07-30T15:14:01.672Z,29.40
2022-07-30T15:16:32.511Z,29.50
2022-07-30T15:19:04.681Z,29.50
2022-07-30T15:21:33.100Z,29.50
2022-07-30T15:24:01.287Z,29.60
2022-07-30T15:26:29.649Z,30.10
2022-07-30T15:28:57.917Z,31.10
2022-07-30T15:31:26.123Z,31.90
2022-07-30T15:33:55.732Z,32.80
2022-07-30T15:36:25.392Z,32.90
2022-07-30T15:38:53.653Z,33.20
2022-07-30T15:41:21.982Z,33.70
2022-07-30T15:43:50.264Z,34.20
2022-07-30T15:46:18.557Z,34.60
2022-07-30T15:48:48.155Z,35.20
2022-07-30T15:51:21.166Z,35.80
2022-07-30T15:59:18.358Z,38.40
2022-07-30T16:01:48.848Z,39.70
2022-07-30T16:04:21.850Z,40.40
2022-07-30T16:07:11.845Z,40.40
2022-07-30T16:09:42.404Z,40.70
2022-07-30T16:12:12.927Z,41.20
2022-07-30T16:14:43.628Z,41.00
2022-07-30T16:17:15.108Z,41.30
2022-07-30T16:19:45.976Z,42.50
2022-07-30T16:22:36.034Z,42.10
2022-07-30T16:27:46.476Z,40.70
2022-07-30T16:30:16.578Z,41.00
2022-07-30T16:32:44.952Z,40.80
2022-07-30T16:35:13.636Z,40.50
2022-07-30T16:37:43.422Z,37.50
2022-07-30T16:40:22.146Z,35.50
2022-07-30T16:45:32.339Z,33.30
2022-07-30T16:48:00.544Z,32.40
2022-07-30T16:50:28.768Z,32.30
2022-07-30T16:52:58.399Z,33.50
2022-07-30T16:55:26.671Z,32.80
2022-07-30T16:57:54.867Z,32.60
2022-07-30T17:00:23.145Z,32.80
2022-07-30T17:02:51.718Z,33.00
2022-07-30T17:05:19.981Z,34.70
2022-07-30T17:07:48.270Z,35.10
2022-07-30T17:10:25.695Z,34.00
2022-07-30T17:12:57.015Z,32.50
2022-07-30T17:15:32.382Z,31.40
2022-07-30T17:18:01.672Z,30.90
2022-07-30T17:20:30.210Z,30.50
2022-07-30T17:22:58.452Z,30.20
2022-07-30T17:25:28.345Z,30.10
2022-07-30T17:27:56.865Z,30.00
2022-07-30T17:30:25.881Z,29.80
2022-07-30T17:32:54.387Z,29.70
2022-07-30T17:35:24.699Z,29.50
2022-07-30T17:37:53.339Z,29.30
2022-07-30T17:40:30.257Z,29.10
2022-07-30T17:43:04.713Z,29.00
2022-07-30T17:45:34.397Z,28.70
2022-07-30T17:48:02.841Z,28.70
2022-07-30T17:50:34.183Z,28.70
2022-07-30T17:53:05.557Z,28.60
2022-07-30T17:55:35.085Z,28.50
2022-07-30T17:58:06.703Z,28.30
2022-07-30T18:00:37.998Z,28.00
2022-07-30T18:03:08.847Z,28.00
2022-07-30T18:05:37.292Z,27.90
2022-07-30T18:08:15.951Z,27.90
2022-07-30T18:10:47.889Z,27.90
2022-07-30T18:13:26.335Z,27.80
2022-07-30T18:15:59.188Z,27.80
2022-07-30T18:18:27.640Z,27.80
2022-07-30T18:20:55.828Z,27.80
2022-07-30T18:23:24.154Z,27.70
2022-07-30T18:26:03.116Z,27.50
2022-07-30T18:28:33.053Z,27.30
2022-07-30T18:31:01.275Z,27.20
2022-07-30T18:33:29.551Z,27.10
2022-07-30T18:35:57.852Z,26.90
2022-07-30T18:38:26.105Z,26.70
2022-07-30T18:41:02.948Z,26.40
2022-07-30T18:43:47.923Z,26.10
2022-07-30T18:46:19.254Z,25.90
2022-07-30T18:48:48.968Z,25.70
2022-07-30T18:51:27.171Z,25.40
2022-07-30T18:53:55.657Z,25.20
2022-07-30T18:56:27.177Z,25.10
2022-07-30T18:58:56.717Z,24.90
2022-07-30T19:01:25.017Z,24.90
2022-07-30T19:03:53.248Z,24.70
2022-07-30T19:06:21.822Z,24.70
2022-07-30T19:08:50.072Z,24.50
2022-07-30T19:11:18.405Z,24.40
2022-07-30T19:13:46.611Z,24.30
2022-07-30T19:16:16.302Z,24.20
2022-07-30T19:18:44.467Z,24.20
2022-07-30T19:21:14.256Z,24.20
2022-07-30T19:23:43.094Z,24.10
2022-07-30T19:26:11.365Z,23.90
2022-07-30T19:28:39.578Z,23.80
2022-07-30T19:31:08.370Z,23.70
2022-07-30T19:33:37.967Z,23.50
2022-07-30T19:36:06.646Z,23.40
2022-07-30T19:38:34.846Z,23.30
2022-07-30T19:41:03.148Z,23.30
2022-07-30T19:43:33.483Z,23.30
2022-07-30T19:46:01.864Z,23.20
2022-07-30T19:48:31.885Z,23.10
2022-07-30T19:51:02.695Z,23.00
2022-07-30T19:53:33.998Z,22.90
2022-07-30T19:56:10.597Z,22.90
2022-07-30T19:58:40.104Z,22.90
2022-07-30T20:01:09.865Z,22.80
2022-07-30T20:03:38.840Z,22.70
2022-07-30T20:06:14.426Z,22.60
2022-07-30T20:11:36.029Z,22.60
2022-07-30T20:14:04.991Z,22.50
2022-07-30T20:16:33.302Z,22.40
2022-07-30T20:19:03.337Z,22.50
2022-07-30T20:21:56.046Z,22.40
2022-07-30T20:24:24.480Z,22.30
2022-07-30T20:26:53.885Z,22.30
2022-07-30T20:29:22.117Z,22.30
2022-07-30T20:31:50.653Z,22.30
2022-07-30T20:34:23.320Z,22.30
2022-07-30T20:36:53.972Z,22.30
2022-07-30T20:39:25.160Z,22.20
2022-07-30T20:42:07.818Z,22.20
2022-07-30T20:44:37.752Z,22.00
2022-07-30T20:47:08.303Z,22.00
2022-07-30T20:49:38.501Z,21.90
2022-07-30T20:52:10.753Z,21.90
2022-07-30T20:54:45.057Z,22.00
2022-07-30T20:57:15.602Z,21.80
2022-07-30T20:59:48.372Z,21.80
2022-07-30T21:02:17.065Z,21.90
2022-07-30T21:04:59.504Z,21.80
2022-07-30T21:07:36.386Z,21.80
2022-07-30T21:10:07.280Z,21.80
2022-07-30T21:12:36.445Z,21.80
2022-07-30T21:15:05.234Z,21.80
2022-07-30T21:17:51.486Z,21.90
2022-07-30T21:20:27.401Z,21.90
2022-07-30T21:23:03.368Z,21.80
2022-07-30T21:25:32.532Z,21.70
2022-07-30T21:28:02.730Z,21.60
2022-07-30T21:30:50.883Z,21.50
2022-07-30T21:33:19.819Z,21.50
2022-07-30T21:35:48.056Z,21.40
2022-07-30T21:38:17.657Z,21.30
2022-07-30T21:40:45.854Z,21.30
2022-07-30T21:43:14.057Z,21.20
2022-07-30T21:45:54.912Z,21.20
2022-07-30T21:48:23.976Z,21.10
2022-07-30T21:50:52.285Z,21.00
2022-07-30T21:53:29.933Z,20.90
2022-07-30T21:56:10.299Z,20.70
2022-07-30T21:58:40.339Z,20.60
2022-07-30T22:01:17.348Z,20.50
2022-07-30T22:04:01.581Z,20.50
2022-07-30T22:06:33.903Z,20.50
2022-07-30T22:09:18.190Z,20.40
2022-07-30T22:11:48.239Z,20.30
2022-07-30T22:14:16.541Z,20.30
2022-07-30T22:16:45.936Z,20.30
2022-07-30T22:19:15.075Z,20.30
2022-07-30T22:24:33.139Z,20.10
2022-07-30T22:27:10.901Z,20.00
2022-07-30T22:29:43.383Z,19.90
2022-07-30T22:32:13.024Z,19.80
2022-07-30T22:34:41.255Z,19.80
2022-07-30T22:37:12.878Z,19.80
2022-07-30T22:39:51.232Z,19.80
2022-07-30T22:42:20.985Z,19.70
2022-07-30T22:47:53.943Z,19.70
2022-07-30T22:50:26.113Z,19.70
2022-07-30T22:53:09.817Z,19.70
2022-07-30T22:55:45.006Z,19.70
2022-07-30T22:58:13.608Z,19.70
2022-07-30T23:00:41.966Z,19.60
2022-07-30T23:03:12.719Z,19.60
2022-07-30T23:05:55.151Z,19.50
2022-07-30T23:08:30.417Z,19.40
2022-07-30T23:11:14.704Z,19.40
2022-07-30T23:12:16.737Z,22.70
2022-07-30T23:12:28.558Z,20.20
2022-07-30T23:12:30.391Z,19.60
2022-07-30T23:13:43.527Z,19.40
2022-07-30T23:16:11.803Z,19.40
2022-07-30T23:18:40.072Z,19.40
2022-07-30T23:21:08.330Z,19.30
2022-07-30T23:23:36.785Z,19.20
2022-07-30T23:26:05.622Z,19.10
2022-07-30T23:28:36.862Z,19.10
2022-07-30T23:31:05.286Z,19.20
2022-07-30T23:33:33.683Z,19.20
2022-07-30T23:36:02.035Z,19.10
2022-07-30T23:38:30.255Z,19.10
2022-07-30T23:41:01.405Z,19.00
2022-07-30T23:43:29.968Z,19.00
2022-07-30T23:45:59.760Z,18.90
2022-07-30T23:48:29.251Z,18.90
2022-07-30T23:50:57.455Z,18.90
2022-07-30T23:53:26.114Z,18.90
2022-07-30T23:55:54.443Z,18.90
2022-07-30T23:58:23.024Z,18.90
